sensor_id;sensor_type;location;lat;lon;timestamp;P1;durP1;ratioP1;P2;durP2;ratioP2
6255;SDS011;3161;48.794;9.784;2024-03-07T00:00:29;28.77;;;12.13;;
6255;SDS011;3161;48.794;9.784;2024-03-07T00:02:57;18.27;;;10.40;;
6255;SDS011;3161;48.794;9.784;2024-03-07T00:05:26;35.20;;;11.10;;
6255;SDS011;3161;48.794;9.784;2024-03-07T00:07:54;32.27;;;12.23;;
6255;SDS011;3161;48.794;9.784;2024-03-07T00:10:22;18.37;;;10.90;;
6255;SDS011;3161;48.794;9.784;2024-03-07T00:12:50;17.90;;;10.23;;
6255;SDS011;3161;48.794;9.784;2024-03-07T00:15:17;25.07;;;11.37;;
6255;SDS011;3161;48.794;9.784;2024-03-07T00:17:45;15.73;;;10.83;;
6255;SDS011;3161;48.794;9.784;2024-03-07T00:20:12;28.87;;;10.30;;
6255;SDS011;3161;48.794;9.784;2024-03-07T00:22:44;52.63;;;12.17;;
6255;SDS011;3161;48.794;9.784;2024-03-07T00:25:12;38.47;;;10.40;;
6255;SDS011;3161;48.794;9.784;2024-03-07T00:27:40;53.90;;;12.27;;
6255;SDS011;3161;48.794;9.784;2024-03-07T00:30:10;33.20;;;10.33;;
6255;SDS011;3161;48.794;9.784;2024-03-07T00:32:39;72.73;;;11.40;;
6255;SDS011;3161;48.794;9.784;2024-03-07T00:35:07;70.43;;;11.37;;
6255;SDS011;3161;48.794;9.784;2024-03-07T00:37:35;48.13;;;10.43;;
6255;SDS011;3161;48.794;9.784;2024-03-07T00:40:03;52.63;;;12.13;;
6255;SDS011;3161;48.794;9.784;2024-03-07T00:42:32;31.20;;;11.90;;
6255;SDS011;3161;48.794;9.784;2024-03-07T00:44:59;29.07;;;12.83;;
6255;SDS011;3161;48.794;9.784;2024-03-07T00:47:27;20.47;;;11.93;;
6255;SDS011;3161;48.794;9.784;2024-03-07T00:49:55;18.70;;;12.33;;
6255;SDS011;3161;48.794;9.784;2024-03-07T00:52:22;22.03;;;12.57;;
6255;SDS011;3161;48.794;9.784;2024-03-07T00:54:51;30.03;;;12.13;;
6255;SDS011;3161;48.794;9.784;2024-03-07T00:57:18;29.73;;;13.50;;
6255;SDS011;3161;48.794;9.784;2024-03-07T00:59:46;39.17;;;11.93;;
6255;SDS011;3161;48.794;9.784;2024-03-07T01:02:14;60.53;;;13.20;;
6255;SDS011;3161;48.794;9.784;2024-03-07T01:04:43;141.43;;;14.63;;
6255;SDS011;3161;48.794;9.784;2024-03-07T01:07:10;107.90;;;13.40;;
6255;SDS011;3161;48.794;9.784;2024-03-07T01:09:38;170.70;;;13.70;;
6255;SDS011;3161;48.794;9.784;2024-03-07T01:12:06;140.20;;;12.23;;
6255;SDS011;3161;48.794;9.784;2024-03-07T01:14:35;128.13;;;13.73;;
6255;SDS011;3161;48.794;9.784;2024-03-07T01:17:03;141.73;;;14.93;;
6255;SDS011;3161;48.794;9.784;2024-03-07T01:19:32;27.93;;;13.77;;
6255;SDS011;3161;48.794;9.784;2024-03-07T01:22:00;31.30;;;15.63;;
6255;SDS011;3161;48.794;9.784;2024-03-07T01:24:27;29.07;;;17.20;;
6255;SDS011;3161;48.794;9.784;2024-03-07T01:26:55;32.53;;;17.83;;
6255;SDS011;3161;48.794;9.784;2024-03-07T01:29:22;29.20;;;15.57;;
6255;SDS011;3161;48.794;9.784;2024-03-07T01:31:50;26.87;;;15.77;;
6255;SDS011;3161;48.794;9.784;2024-03-07T01:34:18;35.53;;;18.87;;
6255;SDS011;3161;48.794;9.784;2024-03-07T01:36:45;39.33;;;17.80;;
6255;SDS011;3161;48.794;9.784;2024-03-07T01:39:13;27.03;;;15.47;;
6255;SDS011;3161;48.794;9.784;2024-03-07T01:41:40;21.47;;;14.33;;
6255;SDS011;3161;48.794;9.784;2024-03-07T01:44:08;20.23;;;13.57;;
6255;SDS011;3161;48.794;9.784;2024-03-07T01:46:35;17.63;;;12.23;;
6255;SDS011;3161;48.794;9.784;2024-03-07T01:49:03;21.53;;;13.43;;
6255;SDS011;3161;48.794;9.784;2024-03-07T01:51:33;18.27;;;12.43;;
6255;SDS011;3161;48.794;9.784;2024-03-07T01:54:02;28.00;;;16.47;;
6255;SDS011;3161;48.794;9.784;2024-03-07T01:56:31;24.77;;;16.20;;
6255;SDS011;3161;48.794;9.784;2024-03-07T01:58:59;22.70;;;14.27;;
6255;SDS011;3161;48.794;9.784;2024-03-07T02:01:28;20.37;;;13.50;;
6255;SDS011;3161;48.794;9.784;2024-03-07T02:03:55;20.37;;;13.37;;
6255;SDS011;3161;48.794;9.784;2024-03-07T02:06:23;25.57;;;16.87;;
6255;SDS011;3161;48.794;9.784;2024-03-07T02:08:52;25.83;;;14.93;;
6255;SDS011;3161;48.794;9.784;2024-03-07T02:11:20;23.23;;;15.30;;
6255;SDS011;3161;48.794;9.784;2024-03-07T02:13:49;20.40;;;13.70;;
6255;SDS011;3161;48.794;9.784;2024-03-07T02:16:17;21.57;;;13.20;;
6255;SDS011;3161;48.794;9.784;2024-03-07T02:18:46;19.13;;;13.17;;
6255;SDS011;3161;48.794;9.784;2024-03-07T02:21:15;24.17;;;13.43;;
6255;SDS011;3161;48.794;9.784;2024-03-07T02:23:42;22.57;;;14.73;;
6255;SDS011;3161;48.794;9.784;2024-03-07T02:26:10;22.80;;;15.07;;
6255;SDS011;3161;48.794;9.784;2024-03-07T02:28:38;22.30;;;15.83;;
6255;SDS011;3161;48.794;9.784;2024-03-07T02:31:05;28.23;;;16.77;;
6255;SDS011;3161;48.794;9.784;2024-03-07T02:33:33;26.47;;;17.40;;
6255;SDS011;3161;48.794;9.784;2024-03-07T02:36:00;27.73;;;18.77;;
6255;SDS011;3161;48.794;9.784;2024-03-07T02:38:29;35.30;;;18.67;;
6255;SDS011;3161;48.794;9.784;2024-03-07T02:40:56;27.50;;;17.37;;
6255;SDS011;3161;48.794;9.784;2024-03-07T02:43:25;29.00;;;18.57;;
6255;SDS011;3161;48.794;9.784;2024-03-07T02:45:53;26.23;;;16.70;;
6255;SDS011;3161;48.794;9.784;2024-03-07T02:48:21;31.33;;;19.07;;
6255;SDS011;3161;48.794;9.784;2024-03-07T02:50:49;28.80;;;17.40;;
6255;SDS011;3161;48.794;9.784;2024-03-07T02:53:16;23.37;;;15.23;;
6255;SDS011;3161;48.794;9.784;2024-03-07T02:55:44;26.77;;;16.47;;
6255;SDS011;3161;48.794;9.784;2024-03-07T02:58:12;26.77;;;16.27;;
6255;SDS011;3161;48.794;9.784;2024-03-07T03:00:40;25.47;;;16.13;;
6255;SDS011;3161;48.794;9.784;2024-03-07T03:03:08;22.30;;;15.40;;
6255;SDS011;3161;48.794;9.784;2024-03-07T03:05:36;25.37;;;15.60;;
6255;SDS011;3161;48.794;9.784;2024-03-07T03:08:04;23.80;;;15.87;;
6255;SDS011;3161;48.794;9.784;2024-03-07T03:10:32;25.13;;;16.40;;
6255;SDS011;3161;48.794;9.784;2024-03-07T03:13:00;25.07;;;16.77;;
6255;SDS011;3161;48.794;9.784;2024-03-07T03:15:27;31.27;;;17.97;;
6255;SDS011;3161;48.794;9.784;2024-03-07T03:17:56;32.67;;;18.13;;
6255;SDS011;3161;48.794;9.784;2024-03-07T03:20:26;32.37;;;20.57;;
6255;SDS011;3161;48.794;9.784;2024-03-07T03:22:55;36.10;;;20.30;;
6255;SDS011;3161;48.794;9.784;2024-03-07T03:25:22;32.07;;;20.67;;
6255;SDS011;3161;48.794;9.784;2024-03-07T03:27:50;33.70;;;21.23;;
6255;SDS011;3161;48.794;9.784;2024-03-07T03:30:18;34.17;;;20.83;;
6255;SDS011;3161;48.794;9.784;2024-03-07T03:32:47;29.63;;;18.77;;
6255;SDS011;3161;48.794;9.784;2024-03-07T03:35:15;31.87;;;19.77;;
6255;SDS011;3161;48.794;9.784;2024-03-07T03:37:44;32.97;;;18.30;;
6255;SDS011;3161;48.794;9.784;2024-03-07T03:40:12;36.43;;;19.97;;
6255;SDS011;3161;48.794;9.784;2024-03-07T03:42:40;30.43;;;19.67;;
6255;SDS011;3161;48.794;9.784;2024-03-07T03:45:09;31.33;;;18.80;;
6255;SDS011;3161;48.794;9.784;2024-03-07T03:47:38;50.73;;;20.57;;
6255;SDS011;3161;48.794;9.784;2024-03-07T03:50:08;47.33;;;22.27;;
6255;SDS011;3161;48.794;9.784;2024-03-07T03:52:37;43.00;;;23.17;;
6255;SDS011;3161;48.794;9.784;2024-03-07T03:55:05;31.30;;;19.40;;
6255;SDS011;3161;48.794;9.784;2024-03-07T03:57:35;52.70;;;22.03;;
6255;SDS011;3161;48.794;9.784;2024-03-07T04:00:04;73.57;;;21.63;;
6255;SDS011;3161;48.794;9.784;2024-03-07T04:02:34;52.33;;;22.33;;
6255;SDS011;3161;48.794;9.784;2024-03-07T04:05:04;53.13;;;21.47;;
6255;SDS011;3161;48.794;9.784;2024-03-07T04:07:32;65.60;;;21.73;;
6255;SDS011;3161;48.794;9.784;2024-03-07T04:09:59;46.83;;;20.87;;
6255;SDS011;3161;48.794;9.784;2024-03-07T04:12:28;51.53;;;21.30;;
6255;SDS011;3161;48.794;9.784;2024-03-07T04:14:56;90.67;;;34.33;;
6255;SDS011;3161;48.794;9.784;2024-03-07T04:17:24;45.70;;;22.50;;
6255;SDS011;3161;48.794;9.784;2024-03-07T04:19:51;39.83;;;22.70;;
6255;SDS011;3161;48.794;9.784;2024-03-07T04:22:19;39.67;;;23.50;;
6255;SDS011;3161;48.794;9.784;2024-03-07T04:24:47;39.87;;;22.90;;
6255;SDS011;3161;48.794;9.784;2024-03-07T04:27:16;47.30;;;23.60;;
6255;SDS011;3161;48.794;9.784;2024-03-07T04:29:43;60.37;;;22.73;;
6255;SDS011;3161;48.794;9.784;2024-03-07T04:32:12;42.07;;;23.07;;
6255;SDS011;3161;48.794;9.784;2024-03-07T04:34:40;75.87;;;23.63;;
6255;SDS011;3161;48.794;9.784;2024-03-07T04:37:08;38.00;;;23.07;;
6255;SDS011;3161;48.794;9.784;2024-03-07T04:39:35;58.00;;;23.47;;
6255;SDS011;3161;48.794;9.784;2024-03-07T04:42:03;54.17;;;23.60;;
6255;SDS011;3161;48.794;9.784;2024-03-07T04:44:37;51.07;;;22.87;;
6255;SDS011;3161;48.794;9.784;2024-03-07T04:47:05;134.47;;;23.50;;
6255;SDS011;3161;48.794;9.784;2024-03-07T04:49:33;47.37;;;23.20;;
6255;SDS011;3161;48.794;9.784;2024-03-07T04:52:02;79.37;;;22.77;;
6255;SDS011;3161;48.794;9.784;2024-03-07T04:54:30;57.30;;;23.63;;
6255;SDS011;3161;48.794;9.784;2024-03-07T04:56:58;70.40;;;23.90;;
6255;SDS011;3161;48.794;9.784;2024-03-07T04:59:25;45.63;;;24.50;;
6255;SDS011;3161;48.794;9.784;2024-03-07T05:01:53;46.53;;;23.57;;
6255;SDS011;3161;48.794;9.784;2024-03-07T05:04:20;44.33;;;24.47;;
6255;SDS011;3161;48.794;9.784;2024-03-07T05:06:49;37.27;;;22.70;;
6255;SDS011;3161;48.794;9.784;2024-03-07T05:09:17;42.33;;;24.07;;
6255;SDS011;3161;48.794;9.784;2024-03-07T05:11:52;39.63;;;22.13;;
6255;SDS011;3161;48.794;9.784;2024-03-07T05:14:20;38.97;;;22.27;;
6255;SDS011;3161;48.794;9.784;2024-03-07T05:16:48;40.27;;;22.60;;
6255;SDS011;3161;48.794;9.784;2024-03-07T05:19:17;42.43;;;22.73;;
6255;SDS011;3161;48.794;9.784;2024-03-07T05:21:45;45.70;;;24.60;;
6255;SDS011;3161;48.794;9.784;2024-03-07T05:24:12;44.33;;;24.87;;
6255;SDS011;3161;48.794;9.784;2024-03-07T05:26:40;60.63;;;24.57;;
6255;SDS011;3161;48.794;9.784;2024-03-07T05:29:08;53.53;;;24.17;;
6255;SDS011;3161;48.794;9.784;2024-03-07T05:31:41;46.87;;;23.13;;
6255;SDS011;3161;48.794;9.784;2024-03-07T05:34:07;54.10;;;23.90;;
6255;SDS011;3161;48.794;9.784;2024-03-07T05:36:35;58.73;;;23.77;;
6255;SDS011;3161;48.794;9.784;2024-03-07T05:39:05;93.77;;;24.80;;
6255;SDS011;3161;48.794;9.784;2024-03-07T05:41:34;80.77;;;23.03;;
6255;SDS011;3161;48.794;9.784;2024-03-07T05:44:02;78.47;;;22.33;;
6255;SDS011;3161;48.794;9.784;2024-03-07T05:46:30;64.20;;;23.13;;
6255;SDS011;3161;48.794;9.784;2024-03-07T05:48:57;53.83;;;23.53;;
6255;SDS011;3161;48.794;9.784;2024-03-07T05:51:25;58.73;;;24.77;;
6255;SDS011;3161;48.794;9.784;2024-03-07T05:53:53;52.60;;;23.97;;
6255;SDS011;3161;48.794;9.784;2024-03-07T05:56:21;39.17;;;23.77;;
6255;SDS011;3161;48.794;9.784;2024-03-07T05:58:48;43.03;;;25.10;;
6255;SDS011;3161;48.794;9.784;2024-03-07T06:01:17;41.13;;;23.87;;
6255;SDS011;3161;48.794;9.784;2024-03-07T06:03:44;37.27;;;21.50;;
6255;SDS011;3161;48.794;9.784;2024-03-07T06:06:14;43.30;;;23.60;;
6255;SDS011;3161;48.794;9.784;2024-03-07T06:08:42;39.60;;;21.80;;
6255;SDS011;3161;48.794;9.784;2024-03-07T06:11:10;40.10;;;22.67;;
6255;SDS011;3161;48.794;9.784;2024-03-07T06:13:39;39.30;;;22.40;;
6255;SDS011;3161;48.794;9.784;2024-03-07T06:16:06;41.77;;;24.00;;
6255;SDS011;3161;48.794;9.784;2024-03-07T06:18:34;39.40;;;22.83;;
6255;SDS011;3161;48.794;9.784;2024-03-07T06:21:01;40.47;;;22.73;;
6255;SDS011;3161;48.794;9.784;2024-03-07T06:23:30;35.20;;;22.07;;
6255;SDS011;3161;48.794;9.784;2024-03-07T06:25:58;38.77;;;23.67;;
6255;SDS011;3161;48.794;9.784;2024-03-07T06:28:26;41.93;;;23.23;;
6255;SDS011;3161;48.794;9.784;2024-03-07T06:30:54;41.03;;;23.67;;
6255;SDS011;3161;48.794;9.784;2024-03-07T06:33:22;37.20;;;23.33;;
6255;SDS011;3161;48.794;9.784;2024-03-07T06:35:51;32.00;;;21.10;;
6255;SDS011;3161;48.794;9.784;2024-03-07T06:38:19;42.17;;;23.93;;
6255;SDS011;3161;48.794;9.784;2024-03-07T06:40:47;38.90;;;24.37;;
6255;SDS011;3161;48.794;9.784;2024-03-07T06:43:14;40.93;;;23.83;;
6255;SDS011;3161;48.794;9.784;2024-03-07T06:45:42;41.87;;;24.17;;
6255;SDS011;3161;48.794;9.784;2024-03-07T06:48:11;42.93;;;23.07;;
6255;SDS011;3161;48.794;9.784;2024-03-07T06:50:40;36.10;;;23.30;;
6255;SDS011;3161;48.794;9.784;2024-03-07T06:53:09;33.90;;;20.57;;
6255;SDS011;3161;48.794;9.784;2024-03-07T06:55:36;43.90;;;26.23;;
6255;SDS011;3161;48.794;9.784;2024-03-07T06:58:04;36.63;;;23.47;;
6255;SDS011;3161;48.794;9.784;2024-03-07T07:00:31;39.60;;;23.17;;
6255;SDS011;3161;48.794;9.784;2024-03-07T07:03:02;40.20;;;23.10;;
6255;SDS011;3161;48.794;9.784;2024-03-07T07:05:30;39.73;;;23.30;;
6255;SDS011;3161;48.794;9.784;2024-03-07T07:07:59;36.10;;;22.00;;
6255;SDS011;3161;48.794;9.784;2024-03-07T07:10:27;34.10;;;21.47;;
6255;SDS011;3161;48.794;9.784;2024-03-07T07:12:55;35.33;;;21.63;;
6255;SDS011;3161;48.794;9.784;2024-03-07T07:15:23;38.20;;;22.30;;
6255;SDS011;3161;48.794;9.784;2024-03-07T07:17:50;35.83;;;22.47;;
6255;SDS011;3161;48.794;9.784;2024-03-07T07:20:18;35.53;;;20.17;;
6255;SDS011;3161;48.794;9.784;2024-03-07T07:22:46;38.80;;;20.37;;
6255;SDS011;3161;48.794;9.784;2024-03-07T07:25:14;35.63;;;21.53;;
6255;SDS011;3161;48.794;9.784;2024-03-07T07:27:43;28.77;;;19.27;;
6255;SDS011;3161;48.794;9.784;2024-03-07T07:30:12;36.43;;;21.77;;
6255;SDS011;3161;48.794;9.784;2024-03-07T07:32:41;34.60;;;21.27;;
6255;SDS011;3161;48.794;9.784;2024-03-07T07:35:10;37.17;;;20.40;;
6255;SDS011;3161;48.794;9.784;2024-03-07T07:37:41;29.37;;;19.63;;
6255;SDS011;3161;48.794;9.784;2024-03-07T07:40:12;39.37;;;19.37;;
6255;SDS011;3161;48.794;9.784;2024-03-07T07:42:40;28.70;;;18.23;;
6255;SDS011;3161;48.794;9.784;2024-03-07T07:45:09;28.73;;;19.57;;
6255;SDS011;3161;48.794;9.784;2024-03-07T07:47:40;32.23;;;20.57;;
6255;SDS011;3161;48.794;9.784;2024-03-07T07:50:09;32.43;;;19.63;;
6255;SDS011;3161;48.794;9.784;2024-03-07T07:52:46;29.40;;;19.97;;
6255;SDS011;3161;48.794;9.784;2024-03-07T07:55:16;33.30;;;20.80;;
6255;SDS011;3161;48.794;9.784;2024-03-07T07:57:44;34.20;;;20.67;;
6255;SDS011;3161;48.794;9.784;2024-03-07T08:00:12;35.07;;;20.47;;
6255;SDS011;3161;48.794;9.784;2024-03-07T08:02:55;29.00;;;18.60;;
6255;SDS011;3161;48.794;9.784;2024-03-07T08:05:25;29.40;;;20.13;;
6255;SDS011;3161;48.794;9.784;2024-03-07T08:07:55;33.93;;;20.03;;
6255;SDS011;3161;48.794;9.784;2024-03-07T08:10:25;34.20;;;20.87;;
6255;SDS011;3161;48.794;9.784;2024-03-07T08:13:01;33.37;;;21.00;;
6255;SDS011;3161;48.794;9.784;2024-03-07T08:15:25;34.83;;;20.60;;
6255;SDS011;3161;48.794;9.784;2024-03-07T08:17:54;30.73;;;20.07;;
6255;SDS011;3161;48.794;9.784;2024-03-07T08:20:23;29.33;;;19.73;;
6255;SDS011;3161;48.794;9.784;2024-03-07T08:22:54;28.93;;;19.33;;
6255;SDS011;3161;48.794;9.784;2024-03-07T08:25:23;34.47;;;19.03;;
6255;SDS011;3161;48.794;9.784;2024-03-07T08:27:53;32.13;;;20.57;;
6255;SDS011;3161;48.794;9.784;2024-03-07T08:30:23;32.37;;;19.30;;
6255;SDS011;3161;48.794;9.784;2024-03-07T08:32:53;27.57;;;18.27;;
6255;SDS011;3161;48.794;9.784;2024-03-07T08:35:21;26.47;;;16.37;;
6255;SDS011;3161;48.794;9.784;2024-03-07T08:37:50;26.63;;;16.37;;
6255;SDS011;3161;48.794;9.784;2024-03-07T08:40:19;27.13;;;16.70;;
6255;SDS011;3161;48.794;9.784;2024-03-07T08:42:49;20.77;;;14.37;;
6255;SDS011;3161;48.794;9.784;2024-03-07T08:45:18;22.37;;;16.03;;
6255;SDS011;3161;48.794;9.784;2024-03-07T08:47:46;20.23;;;14.83;;
6255;SDS011;3161;48.794;9.784;2024-03-07T08:50:16;23.33;;;15.27;;
6255;SDS011;3161;48.794;9.784;2024-03-07T08:52:44;18.73;;;13.93;;
6255;SDS011;3161;48.794;9.784;2024-03-07T08:55:15;24.20;;;15.57;;
6255;SDS011;3161;48.794;9.784;2024-03-07T08:57:45;21.00;;;14.70;;
6255;SDS011;3161;48.794;9.784;2024-03-07T09:00:15;21.73;;;15.07;;
6255;SDS011;3161;48.794;9.784;2024-03-07T09:02:54;21.27;;;14.07;;
6255;SDS011;3161;48.794;9.784;2024-03-07T09:05:25;18.40;;;14.47;;
6255;SDS011;3161;48.794;9.784;2024-03-07T09:07:49;23.97;;;16.20;;
6255;SDS011;3161;48.794;9.784;2024-03-07T09:10:18;20.47;;;15.37;;
6255;SDS011;3161;48.794;9.784;2024-03-07T09:12:46;22.50;;;15.50;;
6255;SDS011;3161;48.794;9.784;2024-03-07T09:18:10;23.03;;;15.37;;
6255;SDS011;3161;48.794;9.784;2024-03-07T09:20:38;25.20;;;16.67;;
6255;SDS011;3161;48.794;9.784;2024-03-07T09:23:06;24.03;;;16.50;;
6255;SDS011;3161;48.794;9.784;2024-03-07T09:25:33;21.13;;;15.87;;
6255;SDS011;3161;48.794;9.784;2024-03-07T09:28:01;26.60;;;17.37;;
6255;SDS011;3161;48.794;9.784;2024-03-07T09:30:29;22.50;;;16.73;;
6255;SDS011;3161;48.794;9.784;2024-03-07T09:32:57;22.93;;;16.50;;
6255;SDS011;3161;48.794;9.784;2024-03-07T09:35:24;26.93;;;17.20;;
6255;SDS011;3161;48.794;9.784;2024-03-07T09:37:52;27.23;;;17.83;;
6255;SDS011;3161;48.794;9.784;2024-03-07T09:40:20;22.63;;;17.23;;
6255;SDS011;3161;48.794;9.784;2024-03-07T09:42:49;24.40;;;17.87;;
6255;SDS011;3161;48.794;9.784;2024-03-07T09:45:19;26.10;;;17.87;;
6255;SDS011;3161;48.794;9.784;2024-03-07T09:47:48;27.90;;;17.17;;
6255;SDS011;3161;48.794;9.784;2024-03-07T09:50:17;26.43;;;18.17;;
6255;SDS011;3161;48.794;9.784;2024-03-07T09:52:50;23.23;;;16.23;;
6255;SDS011;3161;48.794;9.784;2024-03-07T09:55:20;32.03;;;17.77;;
6255;SDS011;3161;48.794;9.784;2024-03-07T09:57:49;27.63;;;18.93;;
6255;SDS011;3161;48.794;9.784;2024-03-07T10:00:19;27.13;;;18.47;;
6255;SDS011;3161;48.794;9.784;2024-03-07T10:02:53;28.87;;;18.07;;
6255;SDS011;3161;48.794;9.784;2024-03-07T10:05:22;28.17;;;19.10;;
6255;SDS011;3161;48.794;9.784;2024-03-07T10:07:51;27.43;;;18.97;;
6255;SDS011;3161;48.794;9.784;2024-03-07T10:10:24;30.73;;;19.27;;
6255;SDS011;3161;48.794;9.784;2024-03-07T10:12:48;28.10;;;20.23;;
6255;SDS011;3161;48.794;9.784;2024-03-07T10:15:18;31.00;;;18.83;;
6255;SDS011;3161;48.794;9.784;2024-03-07T10:17:46;30.63;;;20.97;;
6255;SDS011;3161;48.794;9.784;2024-03-07T10:20:14;34.23;;;21.23;;
6255;SDS011;3161;48.794;9.784;2024-03-07T10:22:46;30.73;;;20.40;;
6255;SDS011;3161;48.794;9.784;2024-03-07T10:25:18;29.13;;;20.17;;
6255;SDS011;3161;48.794;9.784;2024-03-07T10:27:53;29.93;;;19.77;;
6255;SDS011;3161;48.794;9.784;2024-03-07T10:30:21;31.97;;;21.17;;
6255;SDS011;3161;48.794;9.784;2024-03-07T10:32:58;35.63;;;19.97;;
6255;SDS011;3161;48.794;9.784;2024-03-07T10:35:26;25.50;;;19.50;;
6255;SDS011;3161;48.794;9.784;2024-03-07T10:37:55;27.57;;;19.77;;
6255;SDS011;3161;48.794;9.784;2024-03-07T10:40:24;35.23;;;17.53;;
6255;SDS011;3161;48.794;9.784;2024-03-07T10:42:56;28.57;;;18.90;;
6255;SDS011;3161;48.794;9.784;2024-03-07T10:45:23;33.03;;;18.93;;
6255;SDS011;3161;48.794;9.784;2024-03-07T10:47:53;29.97;;;18.47;;
6255;SDS011;3161;48.794;9.784;2024-03-07T10:53:31;31.30;;;17.77;;
6255;SDS011;3161;48.794;9.784;2024-03-07T10:58:37;31.13;;;18.60;;
6255;SDS011;3161;48.794;9.784;2024-03-07T11:01:12;30.87;;;18.47;;
6255;SDS011;3161;48.794;9.784;2024-03-07T11:03:42;24.03;;;17.10;;
6255;SDS011;3161;48.794;9.784;2024-03-07T11:06:11;23.63;;;16.80;;
6255;SDS011;3161;48.794;9.784;2024-03-07T11:08:41;26.63;;;16.90;;
6255;SDS011;3161;48.794;9.784;2024-03-07T11:11:11;27.13;;;16.93;;
6255;SDS011;3161;48.794;9.784;2024-03-07T11:13:40;25.10;;;17.50;;
6255;SDS011;3161;48.794;9.784;2024-03-07T11:16:08;27.27;;;18.20;;
6255;SDS011;3161;48.794;9.784;2024-03-07T11:18:36;23.83;;;17.20;;
6255;SDS011;3161;48.794;9.784;2024-03-07T11:21:04;23.97;;;17.77;;
6255;SDS011;3161;48.794;9.784;2024-03-07T11:23:33;30.47;;;18.33;;
6255;SDS011;3161;48.794;9.784;2024-03-07T11:26:08;23.73;;;16.70;;
6255;SDS011;3161;48.794;9.784;2024-03-07T11:28:37;26.53;;;16.67;;
6255;SDS011;3161;48.794;9.784;2024-03-07T11:31:15;30.93;;;17.43;;
6255;SDS011;3161;48.794;9.784;2024-03-07T11:34:14;24.67;;;17.90;;
6255;SDS011;3161;48.794;9.784;2024-03-07T11:36:52;30.23;;;17.53;;
6255;SDS011;3161;48.794;9.784;2024-03-07T11:39:40;28.00;;;17.53;;
6255;SDS011;3161;48.794;9.784;2024-03-07T11:42:09;28.13;;;18.57;;
6255;SDS011;3161;48.794;9.784;2024-03-07T11:44:38;29.80;;;18.00;;
6255;SDS011;3161;48.794;9.784;2024-03-07T11:47:05;26.27;;;18.83;;
6255;SDS011;3161;48.794;9.784;2024-03-07T11:49:37;27.10;;;20.00;;
6255;SDS011;3161;48.794;9.784;2024-03-07T11:52:04;31.23;;;20.20;;
6255;SDS011;3161;48.794;9.784;2024-03-07T11:54:34;27.80;;;18.20;;
6255;SDS011;3161;48.794;9.784;2024-03-07T11:57:01;35.17;;;20.30;;
6255;SDS011;3161;48.794;9.784;2024-03-07T11:59:29;29.60;;;20.43;;
6255;SDS011;3161;48.794;9.784;2024-03-07T12:01:58;27.67;;;19.43;;
6255;SDS011;3161;48.794;9.784;2024-03-07T12:04:27;28.70;;;20.07;;
6255;SDS011;3161;48.794;9.784;2024-03-07T12:06:54;29.87;;;19.10;;
6255;SDS011;3161;48.794;9.784;2024-03-07T12:09:22;38.00;;;21.10;;
6255;SDS011;3161;48.794;9.784;2024-03-07T12:11:50;32.20;;;19.97;;
6255;SDS011;3161;48.794;9.784;2024-03-07T12:14:19;28.63;;;20.13;;
6255;SDS011;3161;48.794;9.784;2024-03-07T12:16:47;34.10;;;20.63;;
6255;SDS011;3161;48.794;9.784;2024-03-07T12:19:14;33.30;;;21.93;;
6255;SDS011;3161;48.794;9.784;2024-03-07T12:21:43;32.13;;;20.93;;
6255;SDS011;3161;48.794;9.784;2024-03-07T12:24:12;34.00;;;21.57;;
6255;SDS011;3161;48.794;9.784;2024-03-07T12:26:42;32.33;;;21.57;;
6255;SDS011;3161;48.794;9.784;2024-03-07T12:29:10;31.73;;;21.40;;
6255;SDS011;3161;48.794;9.784;2024-03-07T12:31:39;31.93;;;21.30;;
6255;SDS011;3161;48.794;9.784;2024-03-07T12:34:07;31.07;;;20.37;;
6255;SDS011;3161;48.794;9.784;2024-03-07T12:36:37;35.07;;;20.50;;
6255;SDS011;3161;48.794;9.784;2024-03-07T12:39:23;34.57;;;21.60;;
6255;SDS011;3161;48.794;9.784;2024-03-07T12:41:57;30.87;;;19.90;;
6255;SDS011;3161;48.794;9.784;2024-03-07T12:44:25;37.13;;;20.70;;
6255;SDS011;3161;48.794;9.784;2024-03-07T12:46:53;31.07;;;19.70;;
6255;SDS011;3161;48.794;9.784;2024-03-07T12:49:22;32.07;;;20.73;;
6255;SDS011;3161;48.794;9.784;2024-03-07T12:51:53;31.20;;;20.00;;
6255;SDS011;3161;48.794;9.784;2024-03-07T12:54:22;29.60;;;20.27;;
6255;SDS011;3161;48.794;9.784;2024-03-07T12:56:50;31.20;;;20.03;;
6255;SDS011;3161;48.794;9.784;2024-03-07T12:59:18;35.00;;;21.53;;
6255;SDS011;3161;48.794;9.784;2024-03-07T13:01:47;36.37;;;21.23;;
6255;SDS011;3161;48.794;9.784;2024-03-07T13:04:15;29.50;;;21.13;;
6255;SDS011;3161;48.794;9.784;2024-03-07T13:06:43;31.33;;;20.00;;
6255;SDS011;3161;48.794;9.784;2024-03-07T13:09:12;26.67;;;18.47;;
6255;SDS011;3161;48.794;9.784;2024-03-07T13:11:40;30.47;;;20.47;;
6255;SDS011;3161;48.794;9.784;2024-03-07T13:14:09;28.93;;;19.17;;
6255;SDS011;3161;48.794;9.784;2024-03-07T13:16:37;27.67;;;19.23;;
6255;SDS011;3161;48.794;9.784;2024-03-07T13:19:04;31.07;;;20.43;;
6255;SDS011;3161;48.794;9.784;2024-03-07T13:21:32;29.90;;;19.60;;
6255;SDS011;3161;48.794;9.784;2024-03-07T13:24:01;31.93;;;20.00;;
6255;SDS011;3161;48.794;9.784;2024-03-07T13:26:29;31.43;;;18.67;;
6255;SDS011;3161;48.794;9.784;2024-03-07T13:28:57;30.07;;;18.23;;
6255;SDS011;3161;48.794;9.784;2024-03-07T13:31:27;31.00;;;18.13;;
6255;SDS011;3161;48.794;9.784;2024-03-07T13:33:55;25.20;;;17.00;;
6255;SDS011;3161;48.794;9.784;2024-03-07T13:36:23;23.77;;;16.70;;
6255;SDS011;3161;48.794;9.784;2024-03-07T13:38:56;22.13;;;15.53;;
6255;SDS011;3161;48.794;9.784;2024-03-07T13:41:21;24.27;;;16.43;;
6255;SDS011;3161;48.794;9.784;2024-03-07T13:43:51;26.57;;;15.40;;
6255;SDS011;3161;48.794;9.784;2024-03-07T13:46:19;25.57;;;15.77;;
6255;SDS011;3161;48.794;9.784;2024-03-07T13:48:47;22.83;;;15.03;;
6255;SDS011;3161;48.794;9.784;2024-03-07T13:51:16;23.33;;;16.13;;
6255;SDS011;3161;48.794;9.784;2024-03-07T13:53:45;22.10;;;16.00;;
6255;SDS011;3161;48.794;9.784;2024-03-07T14:04:45;25.13;;;17.10;;
6255;SDS011;3161;48.794;9.784;2024-03-07T14:10:19;23.97;;;15.43;;
6255;SDS011;3161;48.794;9.784;2024-03-07T14:13:02;24.20;;;15.93;;
6255;SDS011;3161;48.794;9.784;2024-03-07T14:18:43;23.70;;;16.50;;
6255;SDS011;3161;48.794;9.784;2024-03-07T14:27:26;21.10;;;14.57;;
6255;SDS011;3161;48.794;9.784;2024-03-07T14:32:57;23.97;;;13.83;;
6255;SDS011;3161;48.794;9.784;2024-03-07T14:35:30;19.77;;;14.10;;
6255;SDS011;3161;48.794;9.784;2024-03-07T14:40:45;21.97;;;13.03;;
6255;SDS011;3161;48.794;9.784;2024-03-07T14:43:14;20.00;;;13.90;;
6255;SDS011;3161;48.794;9.784;2024-03-07T14:45:45;24.57;;;14.33;;
6255;SDS011;3161;48.794;9.784;2024-03-07T14:48:14;22.43;;;14.63;;
6255;SDS011;3161;48.794;9.784;2024-03-07T14:50:44;25.40;;;15.33;;
6255;SDS011;3161;48.794;9.784;2024-03-07T14:53:13;20.13;;;14.30;;
6255;SDS011;3161;48.794;9.784;2024-03-07T14:55:46;19.70;;;14.17;;
6255;SDS011;3161;48.794;9.784;2024-03-07T14:58:13;21.83;;;14.80;;
6255;SDS011;3161;48.794;9.784;2024-03-07T15:00:51;21.37;;;14.63;;
6255;SDS011;3161;48.794;9.784;2024-03-07T15:03:16;22.60;;;14.20;;
6255;SDS011;3161;48.794;9.784;2024-03-07T15:05:46;21.57;;;14.73;;
6255;SDS011;3161;48.794;9.784;2024-03-07T15:08:13;28.30;;;15.40;;
6255;SDS011;3161;48.794;9.784;2024-03-07T15:10:44;25.53;;;14.60;;
6255;SDS011;3161;48.794;9.784;2024-03-07T15:13:12;29.40;;;16.63;;
6255;SDS011;3161;48.794;9.784;2024-03-07T15:15:40;22.90;;;16.40;;
6255;SDS011;3161;48.794;9.784;2024-03-07T15:18:09;24.50;;;16.00;;
6255;SDS011;3161;48.794;9.784;2024-03-07T15:20:37;22.77;;;15.97;;
6255;SDS011;3161;48.794;9.784;2024-03-07T15:23:07;22.07;;;14.03;;
6255;SDS011;3161;48.794;9.784;2024-03-07T15:25:34;18.90;;;14.00;;
6255;SDS011;3161;48.794;9.784;2024-03-07T15:28:02;20.60;;;13.93;;
6255;SDS011;3161;48.794;9.784;2024-03-07T15:30:31;25.93;;;14.50;;
6255;SDS011;3161;48.794;9.784;2024-03-07T15:33:01;21.60;;;13.93;;